الصفحة الرئيسية
METAR-TAF:

METAR-TAF

مطار :

فلاغستاف, أريزونا, الولايات المتحدة

دائرة عرض: 35-08-25N, خط طول: 111-40-20W, ارتفاع: 2137 متر

مراقبة الطقس الحالي

تاريخ ووقت الإصدار 42 دقيقة قبل الساعة 03:57UTC
ريح 6 عقدة من الجنوب
درجة الحرارة 19°درجة مئوية
الرطوبة 34%
ضغط 1025 hPa
الرؤية: 16.1 كم
سماء صافية

METAR: KFLG 240357Z 18006KT 10SM CLR 19/03 A3026 RMK AO2 SLP138 T01890028

زمن: 21:39 (04:39 UTC)

توقعات

تاريخ ووقت الإصدار 5ساعات و 12 دقيقة قبل الساعة 23:27UTC
التوقعات صالحة من24 الساعة 00 UTC إلى 24 الساعة 24 UTC
ريح 12 عقدة من الجنوب الغربي تتزايد حتى 22 عقدة
الرؤية: 10 كم
غيوم قليلة على ارتفاع 13000 قدم
غيوم قليلة على ارتفاع 25000 قدم
من 24 الساعة 0230 UTC
ريح 3 عقدةمن اتجاهات متغيرة
الرؤية: 10 كم
غيوم متفرقة على ارتفاع 25000 قدم
من 24 الساعة 1700 UTC
ريح 11 عقدة من الجنوب الغربي تتزايد حتى 20 عقدة
الرؤية: 10 كم
غيوم قليلة على ارتفاع 25000 قدم

TAF: KFLG 232327Z 2400/2424 23012G22KT P6SM FEW130 FEW250 FM240230 VRB03KT P6SM SCT250 FM241700 23011G20KT P6SM FEW250

أرصاد الطقس والتوقعات من أكثر من 4000 مطار (تقارير الطقس للمطار METAR والتنبؤ بالطقس بالمطارTAF).

المحطات المتاحة هي النقط الصفراء والحمراء على الخريطة.

حرك المؤشر فوق النقطة لمعرفة اسم المحطة.

ثم انقر لمعرفة أرصاد وتوقعات الطقس.

لتغيير الخارطة: اضغط على الأزرار الخضراء مع رمز الصليب الأسود للتكبير. على الزر الأخضر مع شرطة للتصغير، أو على الأسهم الخضراء للخرائط المجاورة.


METAR-TAF: